Date,TemperatureHighF,TemperatureAvgF,TemperatureLowF,DewpointHighF,DewpointAvgF,DewpointLowF,HumidityHigh,HumidityAvg,HumidityLow,PressureMaxIn,PressureMinIn,WindSpeedMaxMPH,WindSpeedAvgMPH,GustSpeedMaxMPH,PrecipitationSumIn
2013-11-1,71,66,60,63,58,53,95,77,63,29.78,29.41,11,5,36,0.04
2013-11-2,71,57,49,54,46,41,85,67,34,29.71,29.58,3,1,10,0.01
2013-11-3,52,43,32,46,33,-100,92,72,46,30.40,29.71,2,1,6,0.00
2013-11-4,46,32,27,23,21,19,82,66,38,30.69,30.41,3,0,8,0.00
2013-11-5,53,37,27,34,28,22,85,70,40,30.71,30.51,4,1,10,0.00
2013-11-6,64,51,39,49,41,33,81,70,46,30.51,30.01,6,2,14,0.00
2013-11-7,67,55,41,58,51,35,93,84,67,30.01,29.65,5,2,17,0.19
2013-11-8,49,40,33,36,30,24,88,69,44,30.06,29.79,6,2,14,0.03
2013-11-9,45,39,31,31,23,-100,71,55,41,30.18,30.04,6,2,13,0.01
2013-11-10,54,46,39,44,38,30,95,73,53,30.04,29.72,3,2,10,0.06
2013-11-11,54,46,40,33,29,26,68,52,34,30.08,29.81,5,3,13,0.01
2013-11-12,48,36,28,39,25,16,92,65,53,30.16,29.86,5,2,14,0.08
2013-11-13,38,30,24,17,14,12,72,53,38,30.27,30.15,5,2,11,0.02
2013-11-14,52,40,28,26,22,15,61,48,31,30.15,30.01,5,2,13,0.00
2013-11-15,61,47,35,32,23,18,57,39,20,30.19,30.09,3,2,11,0.00
2013-11-16,62,44,33,34,30,-100,87,60,33,30.31,30.16,2,1,5,0.00
2013-11-17,55,44,31,54,41,28,97,91,79,30.32,29.88,5,1,12,0.07
2013-11-18,69,59,50,60,49,33,98,71,41,29.84,29.51,8,3,17,0.27
2013-11-19,49,40,32,32,22,17,55,49,36,30.26,29.63,7,3,21,0.02
2013-11-20,45,33,27,17,16,13,63,50,29,30.61,30.26,4,1,10,0.00
2013-11-21,50,35,24,26,20,15,72,54,33,30.63,30.37,3,1,8,0.00
2013-11-22,44,41,39,43,38,27,97,88,60,30.36,29.81,3,1,9,0.16
2013-11-23,46,39,31,44,27,-100,97,64,41,29.89,29.75,7,3,16,0.01
2013-11-24,31,25,21,18,5,-3,76,43,31,30.13,29.76,9,6,25,0.00
2013-11-25,33,25,17,15,1,-6,51,36,19,30.34,30.14,6,3,15,0.00
2013-11-26,38,34,31,34,23,15,94,64,47,30.32,30.08,4,1,11,0.03
2013-11-27,61,50,36,60,49,32,97,94,79,30.05,29.19,9,4,26,1.08
2013-11-28,38,32,23,32,17,6,80,56,34,30.42,29.39,7,3,17,0.55
2013-11-29,34,25,19,15,10,2,79,54,30,30.73,30.41,5,1,12,0.02
2013-11-30,38,24,15,23,14,-100,81,70,52,30.79,30.45,2,0,6,0.14